createdAt,value
2019-06-20T00:01:48.349Z,14.25
2019-06-20T00:06:57.436Z,12.46
2019-06-20T00:12:06.590Z,12.83
2019-06-20T00:17:15.690Z,19.24
2019-06-20T00:22:24.908Z,14.63
2019-06-20T00:27:34.015Z,18.16
2019-06-20T00:32:43.305Z,12.29
2019-06-20T00:37:52.481Z,14.31
2019-06-20T00:43:16.424Z,21.62
2019-06-20T00:48:10.303Z,16.08
2019-06-20T00:53:19.553Z,13.65
2019-06-20T00:58:28.697Z,12.68
2019-06-20T01:03:37.837Z,16.76
2019-06-20T01:08:46.953Z,18.77
2019-06-20T01:13:56.286Z,16.97
2019-06-20T01:19:05.390Z,23.41
2019-06-20T01:24:14.645Z,18.54
2019-06-20T01:29:23.865Z,19.63
2019-06-20T01:34:34.004Z,18.09
2019-06-20T01:39:33.122Z,25.09
2019-06-20T01:44:42.356Z,17.23
2019-06-20T01:49:51.483Z,22.55
2019-06-20T01:55:00.736Z,20.21
2019-06-20T02:00:09.846Z,22.97
2019-06-20T02:05:19.157Z,22.36
2019-06-20T02:10:28.233Z,20.36
2019-06-20T02:15:37.417Z,17.87
2019-06-20T02:20:46.540Z,18.36
2019-06-20T02:25:55.846Z,21.51
2019-06-20T02:31:04.932Z,20.50
2019-06-20T02:36:14.085Z,18.78
2019-06-20T02:41:23.264Z,19.69
2019-06-20T02:46:32.622Z,15.27
2019-06-20T02:51:41.771Z,13.47
2019-06-20T02:56:51.108Z,13.68
2019-06-20T03:02:00.217Z,20.74
2019-06-20T03:07:09.542Z,23.57
2019-06-20T03:12:18.630Z,20.82
2019-06-20T03:17:27.817Z,19.76
2019-06-20T03:22:36.920Z,20.83
2019-06-20T03:27:46.145Z,23.73
2019-06-20T03:32:55.278Z,24.80
2019-06-20T03:38:04.491Z,30.64
2019-06-20T03:43:13.577Z,32.37
2019-06-20T03:48:22.808Z,30.97
2019-06-20T03:53:31.957Z,30.44
2019-06-20T03:58:41.095Z,25.70
2019-06-20T04:03:50.214Z,22.38
2019-06-20T04:08:59.328Z,21.59
2019-06-20T04:14:08.449Z,31.89
2019-06-20T04:19:17.697Z,28.63
2019-06-20T04:24:27.980Z,27.89
2019-06-20T04:29:36.056Z,28.94
2019-06-20T04:34:44.172Z,25.85
2019-06-20T04:39:53.492Z,26.12
2019-06-20T04:45:02.594Z,24.22
2019-06-20T04:50:11.809Z,19.92
2019-06-20T04:55:20.955Z,20.00
2019-06-20T05:00:30.125Z,12.42
2019-06-20T05:05:39.241Z,18.82
2019-06-20T05:10:48.436Z,14.10
2019-06-20T05:15:57.663Z,15.46
2019-06-20T05:21:06.813Z,11.74
2019-06-20T05:26:16.036Z,15.67
2019-06-20T05:31:26.592Z,12.03
2019-06-20T05:36:25.773Z,18.25
2019-06-20T05:41:35.062Z,14.72
2019-06-20T05:46:44.181Z,23.98
2019-06-20T05:51:53.677Z,25.47
2019-06-20T05:57:04.586Z,22.69
2019-06-20T06:02:11.673Z,20.97
2019-06-20T06:07:23.690Z,21.95
2019-06-20T06:12:22.969Z,22.59
2019-06-20T06:17:32.145Z,25.36
2019-06-20T06:22:44.569Z,20.66
2019-06-20T06:27:50.035Z,20.38
2019-06-20T06:32:59.222Z,19.48
2019-06-20T06:38:08.344Z,18.94
2019-06-20T06:43:19.647Z,17.20
2019-06-20T06:48:18.767Z,13.83
2019-06-20T06:53:27.915Z,12.18
2019-06-20T06:58:37.059Z,11.30
2019-06-20T07:03:46.270Z,12.58
2019-06-20T07:08:55.377Z,12.07
2019-06-20T07:14:04.750Z,11.22
2019-06-20T07:19:13.845Z,10.89
2019-06-20T07:24:23.059Z,10.80
2019-06-20T07:29:32.164Z,10.42
2019-06-20T07:34:41.476Z,10.19
2019-06-20T07:39:52.806Z,11.02
2019-06-20T07:44:51.919Z,10.06
2019-06-20T07:50:01.062Z,11.60
2019-06-20T07:55:10.235Z,14.30
2019-06-20T08:00:19.373Z,15.13
2019-06-20T08:05:28.646Z,17.52
2019-06-20T08:10:37.748Z,18.19
2019-06-20T08:15:46.968Z,21.68
2019-06-20T08:20:56.134Z,23.24
2019-06-20T08:26:05.324Z,24.68
2019-06-20T08:31:14.442Z,19.27
2019-06-20T08:36:23.619Z,22.06
2019-06-20T08:41:32.725Z,20.44
2019-06-20T08:46:41.910Z,21.97
2019-06-20T08:51:51.046Z,22.65
2019-06-20T08:57:00.838Z,23.59
2019-06-20T09:02:08.952Z,20.62
2019-06-20T09:07:18.107Z,21.01
2019-06-20T09:12:27.284Z,18.01
2019-06-20T09:17:36.547Z,15.37
2019-06-20T09:22:45.778Z,13.34
2019-06-20T09:27:55.927Z,14.63
2019-06-20T09:33:04.227Z,16.79
2019-06-20T09:38:12.413Z,9.26
2019-06-20T09:43:27.643Z,3.43
2019-06-20T09:48:30.342Z,2.85
2019-06-20T09:53:39.448Z,2.19
2019-06-20T09:58:49.595Z,1.81
2019-06-20T10:03:57.230Z,1.92
2019-06-20T10:09:06.507Z,1.90
2019-06-20T10:14:15.617Z,2.64
2019-06-20T10:19:24.930Z,3.38
2019-06-20T10:24:34.090Z,3.77
2019-06-20T10:29:44.458Z,2.68
2019-06-20T10:34:52.731Z,2.84
2019-06-20T10:40:00.822Z,3.91
2019-06-20T10:45:09.968Z,3.80
2019-06-20T10:50:19.362Z,2.33
2019-06-20T10:55:28.504Z,2.66
2019-06-20T11:00:37.801Z,2.95
2019-06-20T11:05:48.158Z,3.25
2019-06-20T11:10:55.841Z,3.38
2019-06-20T11:16:05.039Z,3.23
2019-06-20T11:21:14.294Z,2.81
2019-06-20T11:26:23.507Z,2.57
2019-06-20T11:31:32.757Z,2.26
2019-06-20T11:36:42.411Z,2.29
2019-06-20T11:41:50.611Z,1.48
2019-06-20T11:46:59.742Z,1.79
2019-06-20T11:52:08.901Z,1.32
2019-06-20T11:57:18.032Z,1.57
2019-06-20T12:02:27.236Z,1.94
2019-06-20T12:07:36.399Z,1.74
2019-06-20T12:12:46.936Z,2.64
2019-06-20T12:17:54.449Z,2.41
2019-06-20T12:23:03.613Z,1.85
2019-06-20T12:28:14.957Z,2.00
2019-06-20T12:33:14.008Z,2.08
2019-06-20T12:38:23.126Z,2.65
2019-06-20T12:43:32.319Z,2.55
2019-06-20T12:48:42.749Z,2.28
2019-06-20T12:53:50.922Z,2.51
2019-06-20T12:58:58.889Z,2.59
2019-06-20T13:04:08.054Z,2.21
2019-06-20T13:09:17.183Z,2.37
2019-06-20T13:14:26.357Z,2.54
2019-06-20T13:19:35.491Z,2.94
2019-06-20T13:24:45.189Z,2.61
2019-06-20T13:29:53.365Z,2.96
2019-06-20T13:35:02.596Z,3.03
2019-06-20T13:40:11.733Z,2.93
2019-06-20T13:45:20.943Z,3.18
2019-06-20T13:50:30.021Z,4.21
2019-06-20T13:55:40.634Z,3.95
2019-06-20T14:00:48.024Z,4.93
2019-06-20T14:05:57.229Z,4.12
2019-06-20T14:11:06.719Z,4.26
2019-06-20T14:16:15.931Z,5.53
2019-06-20T14:21:25.040Z,7.90
2019-06-20T14:26:34.220Z,8.39
2019-06-20T14:31:44.403Z,8.22
2019-06-20T14:36:52.629Z,7.92
2019-06-20T14:42:00.822Z,8.05
2019-06-20T14:47:11.121Z,7.44
2019-06-20T14:52:18.761Z,6.95
2019-06-20T14:57:27.993Z,9.86
2019-06-20T15:02:38.921Z,8.02
2019-06-20T15:07:47.290Z,6.71
2019-06-20T15:12:55.893Z,8.35
2019-06-20T15:18:03.425Z,7.93
2019-06-20T15:23:12.547Z,6.86
2019-06-20T15:28:21.725Z,5.83
2019-06-20T15:33:30.912Z,6.75
2019-06-20T15:38:40.215Z,8.19
2019-06-20T15:43:49.849Z,10.47
2019-06-20T15:48:59.935Z,12.50
2019-06-20T15:54:06.722Z,13.01
2019-06-20T15:59:16.017Z,9.48
2019-06-20T16:04:25.152Z,9.59
2019-06-20T16:09:34.530Z,10.39
2019-06-20T16:14:43.790Z,11.99
2019-06-20T16:19:52.996Z,13.70
2019-06-20T16:25:02.184Z,11.36
2019-06-20T16:30:11.393Z,13.86
2019-06-20T16:35:20.538Z,11.82
2019-06-20T16:40:29.949Z,7.58
2019-06-20T16:45:39.086Z,7.28
2019-06-20T16:50:48.255Z,7.28
2019-06-20T16:55:57.482Z,9.38
2019-06-20T17:01:06.869Z,8.86
2019-06-20T17:06:16.015Z,5.56
2019-06-20T17:11:25.279Z,7.77
2019-06-20T17:16:32.954Z,5.71
2019-06-20T17:21:42.363Z,6.22
2019-06-20T17:26:51.497Z,3.64
2019-06-20T17:32:00.704Z,4.26
2019-06-20T17:37:09.976Z,5.34
2019-06-20T17:42:19.293Z,4.26
2019-06-20T17:47:27.021Z,3.97
2019-06-20T17:52:36.328Z,4.88
2019-06-20T17:57:45.567Z,3.54
2019-06-20T18:02:54.860Z,3.45
2019-06-20T18:08:14.726Z,3.95
2019-06-20T18:13:12.682Z,3.39
2019-06-20T18:18:21.832Z,3.31
2019-06-20T18:23:31.191Z,3.52
2019-06-20T18:28:40.333Z,3.25
2019-06-20T18:33:49.731Z,2.92
2019-06-20T18:38:58.875Z,2.97
2019-06-20T18:44:08.353Z,3.31
2019-06-20T18:49:17.456Z,3.60
2019-06-20T18:54:26.614Z,3.84
2019-06-20T18:59:35.705Z,2.61
2019-06-20T19:04:47.777Z,3.52
2019-06-20T19:09:53.591Z,3.63
2019-06-20T19:15:02.761Z,2.95
2019-06-20T19:20:11.876Z,3.74
2019-06-20T19:25:21.056Z,4.00
2019-06-20T19:30:30.180Z,4.06
2019-06-20T19:35:39.381Z,3.98
2019-06-20T19:40:48.476Z,3.99
2019-06-20T19:45:57.685Z,4.10
2019-06-20T19:51:06.803Z,3.88
2019-06-20T19:56:15.949Z,4.14
2019-06-20T20:01:25.108Z,3.96
2019-06-20T20:06:34.811Z,4.26
2019-06-20T20:11:43.944Z,4.02
2019-06-20T20:16:53.157Z,3.67
2019-06-20T20:22:02.232Z,4.58
2019-06-20T20:27:11.428Z,4.14
2019-06-20T20:32:20.581Z,4.34
2019-06-20T20:37:29.898Z,4.12
2019-06-20T20:42:39.068Z,4.16
2019-06-20T20:47:48.281Z,4.26
2019-06-20T20:52:57.371Z,3.75
2019-06-20T20:58:06.522Z,4.01
2019-06-20T21:03:15.750Z,4.09
2019-06-20T21:08:24.965Z,4.57
2019-06-20T21:13:34.111Z,4.54
2019-06-20T21:18:43.450Z,4.15
2019-06-20T21:23:52.594Z,4.29
2019-06-20T21:29:01.913Z,4.13
2019-06-20T21:34:10.975Z,4.25
2019-06-20T21:39:20.255Z,4.48
2019-06-20T21:44:29.366Z,4.22
2019-06-20T21:49:38.725Z,4.82
2019-06-20T21:54:47.858Z,4.56
2019-06-20T21:59:57.037Z,5.02
2019-06-20T22:05:06.156Z,4.34
2019-06-20T22:10:15.426Z,5.05
2019-06-20T22:15:24.574Z,4.22
2019-06-20T22:20:33.730Z,4.21
2019-06-20T22:25:42.849Z,4.59
2019-06-20T22:30:52.053Z,4.77
2019-06-20T22:36:01.164Z,4.74
2019-06-20T22:41:10.342Z,4.62
2019-06-20T22:46:19.519Z,4.61
2019-06-20T22:51:28.721Z,5.01
2019-06-20T22:56:37.840Z,4.38
2019-06-20T23:01:47.093Z,4.82
2019-06-20T23:06:57.078Z,4.60
2019-06-20T23:12:04.998Z,4.78
2019-06-20T23:17:14.145Z,4.46
2019-06-20T23:22:23.339Z,4.93
2019-06-20T23:27:32.542Z,4.64
2019-06-20T23:32:41.846Z,4.92
2019-06-20T23:37:51.009Z,4.77
2019-06-20T23:43:00.348Z,5.15
2019-06-20T23:48:09.471Z,4.79
2019-06-20T23:53:18.683Z,4.59
2019-06-20T23:58:27.771Z,5.46
